sensor_id;sensor_type;location;lat;lon;timestamp;P1;durP1;ratioP1;P2;durP2;ratioP2
142;SDS011;63667;49.046;8.468;2023-09-12T00:00:47;26.63;;;14.23;;
142;SDS011;63667;49.046;8.468;2023-09-12T00:03:18;26.10;;;15.50;;
142;SDS011;63667;49.046;8.468;2023-09-12T00:05:54;23.60;;;13.57;;
142;SDS011;63667;49.046;8.468;2023-09-12T00:08:22;23.63;;;14.37;;
142;SDS011;63667;49.046;8.468;2023-09-12T00:13:29;28.13;;;14.27;;
142;SDS011;63667;49.046;8.468;2023-09-12T00:15:56;24.40;;;13.50;;
142;SDS011;63667;49.046;8.468;2023-09-12T00:18:24;23.07;;;14.27;;
142;SDS011;63667;49.046;8.468;2023-09-12T00:20:51;26.23;;;14.20;;
142;SDS011;63667;49.046;8.468;2023-09-12T00:23:20;27.87;;;14.57;;
142;SDS011;63667;49.046;8.468;2023-09-12T00:25:47;23.93;;;14.13;;
142;SDS011;63667;49.046;8.468;2023-09-12T00:28:14;26.97;;;14.80;;
142;SDS011;63667;49.046;8.468;2023-09-12T00:30:41;33.37;;;15.37;;
142;SDS011;63667;49.046;8.468;2023-09-12T00:33:08;27.93;;;14.30;;
142;SDS011;63667;49.046;8.468;2023-09-12T00:35:35;29.40;;;15.10;;
142;SDS011;63667;49.046;8.468;2023-09-12T00:38:02;42.70;;;15.17;;
142;SDS011;63667;49.046;8.468;2023-09-12T00:40:30;28.30;;;14.20;;
142;SDS011;63667;49.046;8.468;2023-09-12T00:42:58;31.53;;;14.67;;
142;SDS011;63667;49.046;8.468;2023-09-12T00:45:25;34.33;;;14.40;;
142;SDS011;63667;49.046;8.468;2023-09-12T00:47:52;28.30;;;14.70;;
142;SDS011;63667;49.046;8.468;2023-09-12T00:50:20;30.17;;;14.30;;
142;SDS011;63667;49.046;8.468;2023-09-12T00:52:49;22.30;;;14.30;;
142;SDS011;63667;49.046;8.468;2023-09-12T00:55:16;26.80;;;14.20;;
142;SDS011;63667;49.046;8.468;2023-09-12T00:57:44;24.33;;;14.40;;
142;SDS011;63667;49.046;8.468;2023-09-12T01:00:12;25.40;;;14.23;;
142;SDS011;63667;49.046;8.468;2023-09-12T01:02:42;26.80;;;15.03;;
142;SDS011;63667;49.046;8.468;2023-09-12T01:05:10;24.60;;;15.17;;
142;SDS011;63667;49.046;8.468;2023-09-12T01:07:38;29.83;;;15.20;;
142;SDS011;63667;49.046;8.468;2023-09-12T01:10:06;28.97;;;14.00;;
142;SDS011;63667;49.046;8.468;2023-09-12T01:12:34;24.83;;;14.50;;
142;SDS011;63667;49.046;8.468;2023-09-12T01:15:01;29.20;;;14.60;;
142;SDS011;63667;49.046;8.468;2023-09-12T01:17:33;30.37;;;14.87;;
142;SDS011;63667;49.046;8.468;2023-09-12T01:20:00;27.10;;;15.00;;
142;SDS011;63667;49.046;8.468;2023-09-12T01:28:02;28.70;;;15.37;;
142;SDS011;63667;49.046;8.468;2023-09-12T01:30:29;24.07;;;14.27;;
142;SDS011;63667;49.046;8.468;2023-09-12T01:32:58;25.87;;;15.30;;
142;SDS011;63667;49.046;8.468;2023-09-12T01:35:26;28.43;;;15.17;;
142;SDS011;63667;49.046;8.468;2023-09-12T01:37:53;30.90;;;14.10;;
142;SDS011;63667;49.046;8.468;2023-09-12T01:40:24;28.73;;;13.57;;
142;SDS011;63667;49.046;8.468;2023-09-12T01:42:54;24.70;;;14.27;;
142;SDS011;63667;49.046;8.468;2023-09-12T01:45:23;31.17;;;15.30;;
142;SDS011;63667;49.046;8.468;2023-09-12T01:47:50;26.40;;;15.17;;
142;SDS011;63667;49.046;8.468;2023-09-12T01:50:17;28.67;;;14.80;;
142;SDS011;63667;49.046;8.468;2023-09-12T01:52:44;26.43;;;15.10;;
142;SDS011;63667;49.046;8.468;2023-09-12T01:55:12;25.90;;;14.73;;
142;SDS011;63667;49.046;8.468;2023-09-12T01:57:40;28.60;;;15.80;;
142;SDS011;63667;49.046;8.468;2023-09-12T02:00:08;27.50;;;14.17;;
142;SDS011;63667;49.046;8.468;2023-09-12T02:02:36;25.40;;;15.20;;
142;SDS011;63667;49.046;8.468;2023-09-12T02:07:37;20.90;;;13.40;;
142;SDS011;63667;49.046;8.468;2023-09-12T02:10:04;32.03;;;15.57;;
142;SDS011;63667;49.046;8.468;2023-09-12T02:12:32;24.63;;;14.87;;
142;SDS011;63667;49.046;8.468;2023-09-12T02:14:58;30.23;;;14.67;;
142;SDS011;63667;49.046;8.468;2023-09-12T02:17:26;24.37;;;14.00;;
142;SDS011;63667;49.046;8.468;2023-09-12T02:19:54;31.43;;;14.53;;
142;SDS011;63667;49.046;8.468;2023-09-12T02:22:21;33.33;;;15.00;;
142;SDS011;63667;49.046;8.468;2023-09-12T02:24:49;25.30;;;15.30;;
142;SDS011;63667;49.046;8.468;2023-09-12T02:27:16;27.90;;;15.40;;
142;SDS011;63667;49.046;8.468;2023-09-12T02:29:44;28.33;;;14.70;;
142;SDS011;63667;49.046;8.468;2023-09-12T02:32:11;35.27;;;15.90;;
142;SDS011;63667;49.046;8.468;2023-09-12T02:34:40;30.43;;;14.60;;
142;SDS011;63667;49.046;8.468;2023-09-12T02:37:07;27.50;;;15.10;;
142;SDS011;63667;49.046;8.468;2023-09-12T02:39:35;22.67;;;14.27;;
142;SDS011;63667;49.046;8.468;2023-09-12T02:42:02;24.63;;;14.13;;
142;SDS011;63667;49.046;8.468;2023-09-12T02:44:30;25.73;;;13.90;;
142;SDS011;63667;49.046;8.468;2023-09-12T02:46:58;25.80;;;14.03;;
142;SDS011;63667;49.046;8.468;2023-09-12T02:49:25;25.10;;;14.30;;
142;SDS011;63667;49.046;8.468;2023-09-12T02:51:53;25.17;;;13.97;;
142;SDS011;63667;49.046;8.468;2023-09-12T02:54:20;27.27;;;14.70;;
142;SDS011;63667;49.046;8.468;2023-09-12T02:56:47;26.73;;;14.77;;
142;SDS011;63667;49.046;8.468;2023-09-12T02:59:14;32.00;;;14.83;;
142;SDS011;63667;49.046;8.468;2023-09-12T03:01:43;32.33;;;16.10;;
142;SDS011;63667;49.046;8.468;2023-09-12T03:04:10;30.53;;;15.57;;
142;SDS011;63667;49.046;8.468;2023-09-12T03:06:38;31.53;;;16.40;;
142;SDS011;63667;49.046;8.468;2023-09-12T03:09:06;34.47;;;16.80;;
142;SDS011;63667;49.046;8.468;2023-09-12T03:11:33;33.60;;;15.07;;
142;SDS011;63667;49.046;8.468;2023-09-12T03:14:00;31.10;;;15.80;;
142;SDS011;63667;49.046;8.468;2023-09-12T03:16:28;26.33;;;14.93;;
142;SDS011;63667;49.046;8.468;2023-09-12T03:18:55;25.53;;;14.97;;
142;SDS011;63667;49.046;8.468;2023-09-12T03:21:22;25.30;;;14.70;;
142;SDS011;63667;49.046;8.468;2023-09-12T03:23:50;27.10;;;14.23;;
142;SDS011;63667;49.046;8.468;2023-09-12T03:26:17;32.80;;;16.00;;
142;SDS011;63667;49.046;8.468;2023-09-12T03:28:44;37.70;;;14.87;;
142;SDS011;63667;49.046;8.468;2023-09-12T03:31:13;31.27;;;14.97;;
142;SDS011;63667;49.046;8.468;2023-09-12T03:33:40;28.10;;;14.00;;
142;SDS011;63667;49.046;8.468;2023-09-12T03:36:08;29.50;;;14.50;;
142;SDS011;63667;49.046;8.468;2023-09-12T03:38:35;27.37;;;13.50;;
142;SDS011;63667;49.046;8.468;2023-09-12T03:41:02;29.43;;;14.17;;
142;SDS011;63667;49.046;8.468;2023-09-12T03:43:29;32.10;;;14.93;;
142;SDS011;63667;49.046;8.468;2023-09-12T03:45:57;24.60;;;13.50;;
142;SDS011;63667;49.046;8.468;2023-09-12T03:48:24;23.73;;;14.37;;
142;SDS011;63667;49.046;8.468;2023-09-12T03:50:52;25.37;;;14.90;;
142;SDS011;63667;49.046;8.468;2023-09-12T03:53:20;27.93;;;15.17;;
142;SDS011;63667;49.046;8.468;2023-09-12T03:55:47;23.83;;;13.63;;
142;SDS011;63667;49.046;8.468;2023-09-12T03:58:14;28.40;;;15.07;;
142;SDS011;63667;49.046;8.468;2023-09-12T04:00:41;26.90;;;13.93;;
142;SDS011;63667;49.046;8.468;2023-09-12T04:03:09;25.47;;;14.43;;
142;SDS011;63667;49.046;8.468;2023-09-12T04:05:38;28.00;;;15.17;;
142;SDS011;63667;49.046;8.468;2023-09-12T04:08:05;35.17;;;15.07;;
142;SDS011;63667;49.046;8.468;2023-09-12T04:10:33;29.60;;;13.70;;
142;SDS011;63667;49.046;8.468;2023-09-12T04:13:00;27.00;;;14.40;;
142;SDS011;63667;49.046;8.468;2023-09-12T04:15:27;26.37;;;13.30;;
142;SDS011;63667;49.046;8.468;2023-09-12T04:17:55;31.77;;;15.17;;
142;SDS011;63667;49.046;8.468;2023-09-12T04:20:22;27.90;;;14.63;;
142;SDS011;63667;49.046;8.468;2023-09-12T04:22:49;23.83;;;14.07;;
142;SDS011;63667;49.046;8.468;2023-09-12T04:25:17;28.17;;;15.80;;
142;SDS011;63667;49.046;8.468;2023-09-12T04:27:45;25.80;;;15.10;;
142;SDS011;63667;49.046;8.468;2023-09-12T04:30:13;25.40;;;14.23;;
142;SDS011;63667;49.046;8.468;2023-09-12T04:32:40;26.37;;;14.47;;
142;SDS011;63667;49.046;8.468;2023-09-12T04:35:08;23.17;;;14.50;;
142;SDS011;63667;49.046;8.468;2023-09-12T04:37:36;30.23;;;15.50;;
142;SDS011;63667;49.046;8.468;2023-09-12T04:40:03;28.07;;;14.07;;
142;SDS011;63667;49.046;8.468;2023-09-12T04:42:32;25.60;;;14.57;;
142;SDS011;63667;49.046;8.468;2023-09-12T04:45:00;29.40;;;14.80;;
142;SDS011;63667;49.046;8.468;2023-09-12T04:47:27;25.97;;;14.50;;
142;SDS011;63667;49.046;8.468;2023-09-12T04:49:54;29.63;;;15.57;;
142;SDS011;63667;49.046;8.468;2023-09-12T04:52:22;28.53;;;14.20;;
142;SDS011;63667;49.046;8.468;2023-09-12T04:54:48;26.23;;;14.10;;
142;SDS011;63667;49.046;8.468;2023-09-12T04:57:15;25.07;;;15.03;;
142;SDS011;63667;49.046;8.468;2023-09-12T04:59:41;25.80;;;15.47;;
142;SDS011;63667;49.046;8.468;2023-09-12T05:02:09;22.93;;;13.83;;
142;SDS011;63667;49.046;8.468;2023-09-12T05:04:35;25.43;;;14.47;;
142;SDS011;63667;49.046;8.468;2023-09-12T05:07:02;23.00;;;14.10;;
142;SDS011;63667;49.046;8.468;2023-09-12T05:09:29;21.63;;;13.13;;
142;SDS011;63667;49.046;8.468;2023-09-12T05:11:55;27.30;;;14.10;;
142;SDS011;63667;49.046;8.468;2023-09-12T05:14:22;27.27;;;15.63;;
142;SDS011;63667;49.046;8.468;2023-09-12T05:16:48;27.83;;;15.67;;
142;SDS011;63667;49.046;8.468;2023-09-12T05:19:14;25.13;;;13.40;;
142;SDS011;63667;49.046;8.468;2023-09-12T05:21:42;37.23;;;15.70;;
142;SDS011;63667;49.046;8.468;2023-09-12T05:24:10;21.73;;;13.70;;
142;SDS011;63667;49.046;8.468;2023-09-12T05:26:36;31.90;;;14.90;;
142;SDS011;63667;49.046;8.468;2023-09-12T05:29:04;27.43;;;14.63;;
142;SDS011;63667;49.046;8.468;2023-09-12T05:31:31;22.50;;;13.60;;
142;SDS011;63667;49.046;8.468;2023-09-12T05:33:57;24.90;;;13.50;;
142;SDS011;63667;49.046;8.468;2023-09-12T05:36:24;26.77;;;14.03;;
142;SDS011;63667;49.046;8.468;2023-09-12T05:38:52;25.27;;;15.23;;
142;SDS011;63667;49.046;8.468;2023-09-12T05:41:19;32.13;;;14.70;;
142;SDS011;63667;49.046;8.468;2023-09-12T05:43:47;24.87;;;15.00;;
142;SDS011;63667;49.046;8.468;2023-09-12T05:46:15;25.63;;;14.73;;
142;SDS011;63667;49.046;8.468;2023-09-12T05:48:42;32.03;;;15.73;;
142;SDS011;63667;49.046;8.468;2023-09-12T05:51:09;33.17;;;15.13;;
142;SDS011;63667;49.046;8.468;2023-09-12T05:53:37;28.23;;;15.57;;
142;SDS011;63667;49.046;8.468;2023-09-12T05:56:04;27.43;;;14.70;;
142;SDS011;63667;49.046;8.468;2023-09-12T05:58:32;30.17;;;15.63;;
142;SDS011;63667;49.046;8.468;2023-09-12T06:01:01;26.00;;;14.47;;
142;SDS011;63667;49.046;8.468;2023-09-12T06:03:28;28.37;;;15.73;;
142;SDS011;63667;49.046;8.468;2023-09-12T06:05:56;25.10;;;15.20;;
142;SDS011;63667;49.046;8.468;2023-09-12T06:08:23;28.37;;;14.47;;
142;SDS011;63667;49.046;8.468;2023-09-12T06:10:50;21.23;;;13.50;;
142;SDS011;63667;49.046;8.468;2023-09-12T06:13:19;27.30;;;13.77;;
142;SDS011;63667;49.046;8.468;2023-09-12T06:15:47;29.17;;;15.20;;
142;SDS011;63667;49.046;8.468;2023-09-12T06:18:14;25.57;;;14.53;;
142;SDS011;63667;49.046;8.468;2023-09-12T06:20:41;34.27;;;16.37;;
142;SDS011;63667;49.046;8.468;2023-09-12T06:23:09;29.90;;;15.57;;
142;SDS011;63667;49.046;8.468;2023-09-12T06:25:36;23.27;;;13.60;;
142;SDS011;63667;49.046;8.468;2023-09-12T06:28:03;27.60;;;14.73;;
142;SDS011;63667;49.046;8.468;2023-09-12T06:30:31;23.90;;;13.50;;
142;SDS011;63667;49.046;8.468;2023-09-12T06:32:58;21.73;;;14.30;;
142;SDS011;63667;49.046;8.468;2023-09-12T06:35:26;28.30;;;14.50;;
142;SDS011;63667;49.046;8.468;2023-09-12T06:37:53;32.77;;;14.83;;
142;SDS011;63667;49.046;8.468;2023-09-12T06:40:22;22.17;;;13.47;;
142;SDS011;63667;49.046;8.468;2023-09-12T06:42:50;25.43;;;13.73;;
142;SDS011;63667;49.046;8.468;2023-09-12T06:45:17;30.73;;;14.73;;
142;SDS011;63667;49.046;8.468;2023-09-12T06:47:44;25.83;;;14.57;;
142;SDS011;63667;49.046;8.468;2023-09-12T06:50:11;38.57;;;13.13;;
142;SDS011;63667;49.046;8.468;2023-09-12T06:52:38;24.07;;;14.13;;
142;SDS011;63667;49.046;8.468;2023-09-12T06:55:06;26.43;;;14.57;;
142;SDS011;63667;49.046;8.468;2023-09-12T06:57:34;24.20;;;14.63;;
142;SDS011;63667;49.046;8.468;2023-09-12T07:00:02;29.10;;;14.00;;
142;SDS011;63667;49.046;8.468;2023-09-12T07:02:33;27.47;;;14.00;;
142;SDS011;63667;49.046;8.468;2023-09-12T07:05:00;29.53;;;15.20;;
142;SDS011;63667;49.046;8.468;2023-09-12T07:07:30;30.67;;;14.30;;
142;SDS011;63667;49.046;8.468;2023-09-12T07:09:58;32.30;;;15.80;;
142;SDS011;63667;49.046;8.468;2023-09-12T07:12:25;33.13;;;15.40;;
142;SDS011;63667;49.046;8.468;2023-09-12T07:14:55;30.63;;;14.93;;
142;SDS011;63667;49.046;8.468;2023-09-12T07:17:22;31.33;;;15.50;;
142;SDS011;63667;49.046;8.468;2023-09-12T07:19:49;29.60;;;14.80;;
142;SDS011;63667;49.046;8.468;2023-09-12T07:22:17;29.67;;;15.90;;
142;SDS011;63667;49.046;8.468;2023-09-12T07:24:44;33.37;;;15.10;;
142;SDS011;63667;49.046;8.468;2023-09-12T07:27:11;39.83;;;14.53;;
142;SDS011;63667;49.046;8.468;2023-09-12T07:29:38;30.63;;;15.00;;
142;SDS011;63667;49.046;8.468;2023-09-12T07:32:05;28.77;;;15.17;;
142;SDS011;63667;49.046;8.468;2023-09-12T07:34:32;25.00;;;14.00;;
142;SDS011;63667;49.046;8.468;2023-09-12T07:37:00;29.53;;;13.90;;
142;SDS011;63667;49.046;8.468;2023-09-12T07:39:28;33.67;;;14.60;;
142;SDS011;63667;49.046;8.468;2023-09-12T07:41:55;29.57;;;13.90;;
142;SDS011;63667;49.046;8.468;2023-09-12T07:44:23;24.63;;;14.83;;
142;SDS011;63667;49.046;8.468;2023-09-12T07:46:50;31.87;;;13.07;;
142;SDS011;63667;49.046;8.468;2023-09-12T07:49:17;42.23;;;14.27;;
142;SDS011;63667;49.046;8.468;2023-09-12T07:51:45;27.23;;;14.37;;
142;SDS011;63667;49.046;8.468;2023-09-12T07:54:11;23.13;;;13.93;;
142;SDS011;63667;49.046;8.468;2023-09-12T07:56:39;27.33;;;13.80;;
142;SDS011;63667;49.046;8.468;2023-09-12T07:59:06;37.73;;;13.50;;
142;SDS011;63667;49.046;8.468;2023-09-12T08:01:35;29.40;;;14.10;;
142;SDS011;63667;49.046;8.468;2023-09-12T08:04:03;35.57;;;14.60;;
142;SDS011;63667;49.046;8.468;2023-09-12T08:06:31;21.00;;;13.60;;
142;SDS011;63667;49.046;8.468;2023-09-12T08:08:59;27.63;;;13.90;;
142;SDS011;63667;49.046;8.468;2023-09-12T08:11:26;32.20;;;14.37;;
142;SDS011;63667;49.046;8.468;2023-09-12T08:13:54;27.33;;;14.80;;
142;SDS011;63667;49.046;8.468;2023-09-12T08:16:21;34.53;;;14.23;;
142;SDS011;63667;49.046;8.468;2023-09-12T08:18:48;24.37;;;13.83;;
142;SDS011;63667;49.046;8.468;2023-09-12T08:21:16;33.23;;;14.10;;
142;SDS011;63667;49.046;8.468;2023-09-12T08:23:42;30.87;;;14.07;;
142;SDS011;63667;49.046;8.468;2023-09-12T08:26:10;21.37;;;14.27;;
142;SDS011;63667;49.046;8.468;2023-09-12T08:28:37;30.23;;;14.30;;
142;SDS011;63667;49.046;8.468;2023-09-12T08:31:05;24.80;;;14.10;;
142;SDS011;63667;49.046;8.468;2023-09-12T08:33:32;20.90;;;13.97;;
142;SDS011;63667;49.046;8.468;2023-09-12T08:35:59;25.43;;;13.20;;
142;SDS011;63667;49.046;8.468;2023-09-12T08:38:26;24.63;;;14.40;;
142;SDS011;63667;49.046;8.468;2023-09-12T08:40:54;25.10;;;13.27;;
142;SDS011;63667;49.046;8.468;2023-09-12T08:43:22;26.13;;;13.90;;
142;SDS011;63667;49.046;8.468;2023-09-12T08:45:50;26.23;;;13.80;;
142;SDS011;63667;49.046;8.468;2023-09-12T08:48:17;22.47;;;13.77;;
142;SDS011;63667;49.046;8.468;2023-09-12T08:50:46;28.10;;;13.60;;
142;SDS011;63667;49.046;8.468;2023-09-12T08:53:14;22.47;;;14.40;;
142;SDS011;63667;49.046;8.468;2023-09-12T08:55:43;26.70;;;14.17;;
142;SDS011;63667;49.046;8.468;2023-09-12T08:58:10;27.60;;;14.20;;
142;SDS011;63667;49.046;8.468;2023-09-12T09:00:37;26.43;;;14.07;;
142;SDS011;63667;49.046;8.468;2023-09-12T09:03:05;16.77;;;12.60;;
142;SDS011;63667;49.046;8.468;2023-09-12T09:05:32;27.50;;;13.67;;
142;SDS011;63667;49.046;8.468;2023-09-12T09:08:00;23.17;;;13.50;;
142;SDS011;63667;49.046;8.468;2023-09-12T09:10:29;30.40;;;13.10;;
142;SDS011;63667;49.046;8.468;2023-09-12T09:12:58;19.53;;;12.33;;
142;SDS011;63667;49.046;8.468;2023-09-12T09:15:26;23.23;;;13.60;;
142;SDS011;63667;49.046;8.468;2023-09-12T09:17:57;19.83;;;11.83;;
142;SDS011;63667;49.046;8.468;2023-09-12T09:20:27;23.60;;;14.40;;
142;SDS011;63667;49.046;8.468;2023-09-12T09:22:58;18.90;;;12.83;;
142;SDS011;63667;49.046;8.468;2023-09-12T09:25:32;20.03;;;12.20;;
142;SDS011;63667;49.046;8.468;2023-09-12T09:28:02;19.57;;;12.60;;
142;SDS011;63667;49.046;8.468;2023-09-12T09:30:40;22.83;;;13.43;;
142;SDS011;63667;49.046;8.468;2023-09-12T09:33:07;17.27;;;12.73;;
142;SDS011;63667;49.046;8.468;2023-09-12T09:35:34;25.80;;;14.00;;
142;SDS011;63667;49.046;8.468;2023-09-12T09:38:03;21.83;;;13.63;;
142;SDS011;63667;49.046;8.468;2023-09-12T09:40:30;26.23;;;13.30;;
142;SDS011;63667;49.046;8.468;2023-09-12T09:43:02;24.53;;;13.70;;
142;SDS011;63667;49.046;8.468;2023-09-12T09:45:29;23.43;;;14.13;;
142;SDS011;63667;49.046;8.468;2023-09-12T09:47:58;24.57;;;13.77;;
142;SDS011;63667;49.046;8.468;2023-09-12T09:50:25;21.33;;;13.03;;
142;SDS011;63667;49.046;8.468;2023-09-12T09:52:54;21.13;;;12.70;;
142;SDS011;63667;49.046;8.468;2023-09-12T09:55:22;22.90;;;13.90;;
142;SDS011;63667;49.046;8.468;2023-09-12T09:57:49;29.20;;;14.40;;
142;SDS011;63667;49.046;8.468;2023-09-12T10:00:19;19.70;;;12.77;;
142;SDS011;63667;49.046;8.468;2023-09-12T10:02:46;20.17;;;12.83;;
142;SDS011;63667;49.046;8.468;2023-09-12T10:05:14;20.47;;;13.83;;
142;SDS011;63667;49.046;8.468;2023-09-12T10:07:43;21.80;;;13.53;;
142;SDS011;63667;49.046;8.468;2023-09-12T10:10:15;31.03;;;14.10;;
142;SDS011;63667;49.046;8.468;2023-09-12T10:12:43;22.47;;;13.87;;
142;SDS011;63667;49.046;8.468;2023-09-12T10:15:11;20.27;;;13.60;;
142;SDS011;63667;49.046;8.468;2023-09-12T10:17:41;22.20;;;13.97;;
142;SDS011;63667;49.046;8.468;2023-09-12T10:20:12;19.30;;;13.47;;
142;SDS011;63667;49.046;8.468;2023-09-12T10:23:27;23.70;;;13.60;;
142;SDS011;63667;49.046;8.468;2023-09-12T10:25:29;20.97;;;13.60;;
142;SDS011;63667;49.046;8.468;2023-09-12T10:27:56;19.73;;;13.20;;
142;SDS011;63667;49.046;8.468;2023-09-12T10:30:23;19.57;;;13.27;;
142;SDS011;63667;49.046;8.468;2023-09-12T10:32:52;19.70;;;14.13;;
142;SDS011;63667;49.046;8.468;2023-09-12T10:35:19;17.70;;;13.07;;
142;SDS011;63667;49.046;8.468;2023-09-12T10:37:47;22.20;;;13.83;;
142;SDS011;63667;49.046;8.468;2023-09-12T10:40:15;19.97;;;14.47;;
142;SDS011;63667;49.046;8.468;2023-09-12T10:42:44;20.60;;;13.23;;
142;SDS011;63667;49.046;8.468;2023-09-12T10:45:12;25.20;;;13.70;;
142;SDS011;63667;49.046;8.468;2023-09-12T10:47:40;20.90;;;13.83;;
142;SDS011;63667;49.046;8.468;2023-09-12T10:50:07;17.63;;;12.93;;
142;SDS011;63667;49.046;8.468;2023-09-12T10:52:35;24.30;;;13.33;;
142;SDS011;63667;49.046;8.468;2023-09-12T10:55:05;28.90;;;13.57;;
142;SDS011;63667;49.046;8.468;2023-09-12T10:57:32;22.00;;;13.57;;
142;SDS011;63667;49.046;8.468;2023-09-12T11:02:27;21.63;;;13.37;;
142;SDS011;63667;49.046;8.468;2023-09-12T11:04:57;18.40;;;13.20;;
142;SDS011;63667;49.046;8.468;2023-09-12T11:12:47;15.93;;;12.10;;
142;SDS011;63667;49.046;8.468;2023-09-12T11:15:15;22.13;;;12.43;;
142;SDS011;63667;49.046;8.468;2023-09-12T11:17:43;17.83;;;12.17;;
142;SDS011;63667;49.046;8.468;2023-09-12T11:20:11;20.77;;;12.73;;
142;SDS011;63667;49.046;8.468;2023-09-12T11:22:40;19.43;;;12.30;;
142;SDS011;63667;49.046;8.468;2023-09-12T11:25:19;16.03;;;13.00;;
142;SDS011;63667;49.046;8.468;2023-09-12T11:30:26;19.50;;;12.13;;
142;SDS011;63667;49.046;8.468;2023-09-12T11:32:57;16.07;;;12.60;;
142;SDS011;63667;49.046;8.468;2023-09-12T11:35:26;15.70;;;12.03;;
142;SDS011;63667;49.046;8.468;2023-09-12T11:37:54;20.83;;;11.93;;
142;SDS011;63667;49.046;8.468;2023-09-12T11:40:25;14.10;;;10.97;;
142;SDS011;63667;49.046;8.468;2023-09-12T11:42:52;14.67;;;10.83;;
142;SDS011;63667;49.046;8.468;2023-09-12T11:45:20;21.53;;;11.67;;
142;SDS011;63667;49.046;8.468;2023-09-12T11:47:47;16.63;;;11.40;;
142;SDS011;63667;49.046;8.468;2023-09-12T11:53:04;24.73;;;11.77;;
142;SDS011;63667;49.046;8.468;2023-09-12T11:55:34;14.63;;;11.17;;
142;SDS011;63667;49.046;8.468;2023-09-12T11:58:01;19.47;;;11.70;;
142;SDS011;63667;49.046;8.468;2023-09-12T12:00:29;12.17;;;10.70;;
142;SDS011;63667;49.046;8.468;2023-09-12T12:02:56;12.33;;;10.20;;
142;SDS011;63667;49.046;8.468;2023-09-12T12:05:24;14.93;;;11.00;;
142;SDS011;63667;49.046;8.468;2023-09-12T12:07:51;12.20;;;10.73;;
142;SDS011;63667;49.046;8.468;2023-09-12T12:10:19;17.27;;;10.03;;
142;SDS011;63667;49.046;8.468;2023-09-12T12:12:46;16.77;;;10.10;;
142;SDS011;63667;49.046;8.468;2023-09-12T12:15:14;28.70;;;11.37;;
142;SDS011;63667;49.046;8.468;2023-09-12T12:17:41;19.23;;;9.97;;
142;SDS011;63667;49.046;8.468;2023-09-12T12:20:09;12.43;;;10.40;;
142;SDS011;63667;49.046;8.468;2023-09-12T12:22:38;11.53;;;10.43;;
142;SDS011;63667;49.046;8.468;2023-09-12T12:25:06;17.83;;;9.80;;
142;SDS011;63667;49.046;8.468;2023-09-12T12:27:37;16.73;;;10.50;;
142;SDS011;63667;49.046;8.468;2023-09-12T12:30:06;29.00;;;10.23;;
142;SDS011;63667;49.046;8.468;2023-09-12T12:32:43;10.57;;;9.20;;
142;SDS011;63667;49.046;8.468;2023-09-12T12:35:21;20.10;;;9.17;;
142;SDS011;63667;49.046;8.468;2023-09-12T12:38:05;13.60;;;8.50;;
142;SDS011;63667;49.046;8.468;2023-09-12T12:40:36;13.77;;;8.43;;
142;SDS011;63667;49.046;8.468;2023-09-12T12:43:05;80.53;;;12.40;;
142;SDS011;63667;49.046;8.468;2023-09-12T12:45:51;36.80;;;11.70;;
142;SDS011;63667;49.046;8.468;2023-09-12T12:48:28;10.87;;;8.90;;
142;SDS011;63667;49.046;8.468;2023-09-12T12:50:56;14.10;;;9.30;;
142;SDS011;63667;49.046;8.468;2023-09-12T12:53:39;12.17;;;8.60;;
142;SDS011;63667;49.046;8.468;2023-09-12T12:56:07;12.67;;;8.67;;
142;SDS011;63667;49.046;8.468;2023-09-12T12:58:34;13.50;;;9.10;;
142;SDS011;63667;49.046;8.468;2023-09-12T13:01:02;17.93;;;8.40;;
142;SDS011;63667;49.046;8.468;2023-09-12T13:03:29;10.50;;;8.83;;
142;SDS011;63667;49.046;8.468;2023-09-12T13:05:57;12.00;;;8.83;;
142;SDS011;63667;49.046;8.468;2023-09-12T13:08:24;14.53;;;8.70;;
142;SDS011;63667;49.046;8.468;2023-09-12T13:10:52;10.33;;;8.70;;
142;SDS011;63667;49.046;8.468;2023-09-12T13:13:19;13.43;;;9.43;;
142;SDS011;63667;49.046;8.468;2023-09-12T13:15:46;12.40;;;8.93;;
142;SDS011;63667;49.046;8.468;2023-09-12T13:18:14;15.13;;;8.90;;
142;SDS011;63667;49.046;8.468;2023-09-12T13:20:43;12.53;;;8.90;;
142;SDS011;63667;49.046;8.468;2023-09-12T13:23:11;14.50;;;9.00;;
142;SDS011;63667;49.046;8.468;2023-09-12T13:25:38;10.57;;;8.40;;
142;SDS011;63667;49.046;8.468;2023-09-12T13:28:05;12.27;;;8.87;;
142;SDS011;63667;49.046;8.468;2023-09-12T13:30:34;14.70;;;8.80;;
142;SDS011;63667;49.046;8.468;2023-09-12T13:33:01;8.73;;;8.15;;
142;SDS011;63667;49.046;8.468;2023-09-12T13:35:30;12.00;;;8.50;;
142;SDS011;63667;49.046;8.468;2023-09-12T13:37:57;11.13;;;8.73;;
142;SDS011;63667;49.046;8.468;2023-09-12T13:40:25;18.70;;;9.00;;
142;SDS011;63667;49.046;8.468;2023-09-12T13:42:53;17.03;;;9.27;;
142;SDS011;63667;49.046;8.468;2023-09-12T13:45:21;12.40;;;10.20;;
142;SDS011;63667;49.046;8.468;2023-09-12T13:47:47;9.03;;;8.60;;
142;SDS011;63667;49.046;8.468;2023-09-12T13:50:15;15.20;;;8.53;;
142;SDS011;63667;49.046;8.468;2023-09-12T13:52:43;11.23;;;9.27;;
142;SDS011;63667;49.046;8.468;2023-09-12T13:55:10;13.43;;;8.30;;
142;SDS011;63667;49.046;8.468;2023-09-12T13:57:41;11.97;;;9.40;;
142;SDS011;63667;49.046;8.468;2023-09-12T14:00:08;11.80;;;9.00;;
142;SDS011;63667;49.046;8.468;2023-09-12T14:02:35;10.57;;;8.90;;
142;SDS011;63667;49.046;8.468;2023-09-12T14:05:03;9.30;;;8.70;;
142;SDS011;63667;49.046;8.468;2023-09-12T14:07:30;17.93;;;9.33;;
142;SDS011;63667;49.046;8.468;2023-09-12T14:09:58;17.60;;;9.03;;
142;SDS011;63667;49.046;8.468;2023-09-12T14:12:29;12.60;;;8.93;;
142;SDS011;63667;49.046;8.468;2023-09-12T14:14:57;17.17;;;9.17;;
142;SDS011;63667;49.046;8.468;2023-09-12T14:17:24;11.20;;;9.03;;
142;SDS011;63667;49.046;8.468;2023-09-12T14:19:51;9.27;;;8.80;;
142;SDS011;63667;49.046;8.468;2023-09-12T14:22:18;10.80;;;8.43;;
142;SDS011;63667;49.046;8.468;2023-09-12T14:24:47;13.07;;;8.40;;
142;SDS011;63667;49.046;8.468;2023-09-12T14:27:15;12.10;;;8.80;;
142;SDS011;63667;49.046;8.468;2023-09-12T14:29:42;9.37;;;8.43;;
142;SDS011;63667;49.046;8.468;2023-09-12T14:32:11;10.93;;;7.33;;
142;SDS011;63667;49.046;8.468;2023-09-12T14:34:39;9.93;;;7.90;;
142;SDS011;63667;49.046;8.468;2023-09-12T14:37:07;8.87;;;8.00;;
142;SDS011;63667;49.046;8.468;2023-09-12T14:39:34;15.13;;;8.60;;
142;SDS011;63667;49.046;8.468;2023-09-12T14:42:04;11.43;;;8.07;;
142;SDS011;63667;49.046;8.468;2023-09-12T14:44:34;11.17;;;8.10;;
142;SDS011;63667;49.046;8.468;2023-09-12T14:47:02;10.83;;;8.20;;
142;SDS011;63667;49.046;8.468;2023-09-12T14:49:30;16.98;;;8.82;;
142;SDS011;63667;49.046;8.468;2023-09-12T14:51:57;11.50;;;8.33;;
142;SDS011;63667;49.046;8.468;2023-09-12T14:54:24;12.83;;;8.30;;
142;SDS011;63667;49.046;8.468;2023-09-12T14:56:51;8.97;;;8.20;;
142;SDS011;63667;49.046;8.468;2023-09-12T14:59:19;10.40;;;8.05;;
142;SDS011;63667;49.046;8.468;2023-09-12T15:01:46;11.65;;;8.80;;
142;SDS011;63667;49.046;8.468;2023-09-12T15:04:16;14.82;;;8.68;;
142;SDS011;63667;49.046;8.468;2023-09-12T15:06:43;10.70;;;8.32;;
142;SDS011;63667;49.046;8.468;2023-09-12T15:09:10;10.57;;;7.90;;
142;SDS011;63667;49.046;8.468;2023-09-12T15:11:37;9.88;;;8.60;;
142;SDS011;63667;49.046;8.468;2023-09-12T15:14:05;8.93;;;8.40;;
142;SDS011;63667;49.046;8.468;2023-09-12T15:16:32;11.33;;;8.20;;
142;SDS011;63667;49.046;8.468;2023-09-12T15:19:00;16.93;;;9.20;;